Time;durP1;ratioP1;P1;durP2;ratioP2;P2;SDS_P1;SDS_P2;PMS_P1;PMS_P2;Temp;Humidity;BMP_temperature;BMP_pressure;BME280_temperature;BME280_humidity;BME280_pressure;Samples;Min_cycle;Max_cycle;Signal;HPM_P1;HPM_P2
2022/09/19 00:01:21;;;;;;;11.50;3.30;;;13.00;99.90;;;;;;5039973;28;20044;-65
2022/09/19 00:03:55;;;;;;;11.23;3.20;;;13.00;99.90;;;;;;5049420;28;20045;-65
2022/09/19 00:06:22;;;;;;;6.03;2.80;;;13.00;99.90;;;;;;5048250;28;20037;-66
2022/09/19 00:08:48;;;;;;;11.35;3.35;;;13.00;99.90;;;;;;5041057;28;20487;-65
2022/09/19 00:11:18;;;;;;;14.50;3.63;;;13.00;99.90;;;;;;5049921;28;20037;-65
2022/09/19 00:13:45;;;;;;;10.60;2.83;;;13.00;99.90;;;;;;5050804;28;20048;-65
2022/09/19 00:16:29;;;;;;;8.90;2.40;;;12.90;99.90;;;;;;5021061;28;20098;-65
2022/09/19 00:18:57;;;;;;;10.50;2.67;;;12.90;99.90;;;;;;5039713;28;20041;-65
2022/09/19 00:21:28;;;;;;;5.53;1.52;;;12.90;99.90;;;;;;5050480;28;20033;-65
2022/09/19 00:26:39;;;;;;;8.13;2.35;;;13.00;99.90;;;;;;5044931;28;20064;-65
2022/09/19 00:29:07;;;;;;;4.30;2.40;;;12.90;99.90;;;;;;5050161;28;20033;-65
2022/09/19 00:31:34;;;;;;;7.38;2.80;;;12.90;99.90;;;;;;5046071;28;20037;-65
2022/09/19 00:34:00;;;;;;;14.77;2.75;;;13.00;99.90;;;;;;5050050;28;20044;-65
2022/09/19 00:36:27;;;;;;;10.23;3.47;;;12.90;99.90;;;;;;5048005;28;20347;-65
2022/09/19 00:38:53;;;;;;;9.52;2.83;;;13.00;99.90;;;;;;5040609;28;20063;-65
2022/09/19 00:41:21;;;;;;;9.05;3.20;;;13.00;99.90;;;;;;5045492;28;20498;-65
2022/09/19 00:43:54;;;;;;;13.25;3.40;;;13.00;99.90;;;;;;5050472;28;20048;-65
2022/09/19 00:46:22;;;;;;;11.10;2.90;;;13.00;99.90;;;;;;5050142;28;20037;-65
2022/09/19 00:49:07;;;;;;;12.48;2.78;;;12.90;99.90;;;;;;5050058;28;20059;-65
2022/09/19 00:51:38;;;;;;;9.88;2.88;;;12.90;99.90;;;;;;5038114;28;20043;-65
2022/09/19 00:54:20;;;;;;;16.80;4.78;;;12.90;99.90;;;;;;5049970;28;20059;-65
2022/09/19 00:56:51;;;;;;;10.25;4.05;;;13.00;99.90;;;;;;5049850;28;20052;-65
2022/09/19 00:59:19;;;;;;;6.88;2.67;;;12.90;99.90;;;;;;5049737;28;20041;-65
2022/09/19 01:01:46;;;;;;;13.20;3.10;;;13.00;99.90;;;;;;5049284;28;20259;-65
2022/09/19 01:04:16;;;;;;;9.68;2.72;;;13.00;99.90;;;;;;5052552;28;20033;-65
2022/09/19 01:07:03;;;;;;;8.48;2.53;;;13.00;99.90;;;;;;5053482;28;20040;-66
2022/09/19 01:09:45;;;;;;;9.02;2.80;;;12.90;99.90;;;;;;5049380;28;20044;-65
2022/09/19 01:12:37;;;;;;;13.05;3.53;;;12.90;99.90;;;;;;5043661;28;20287;-65
2022/09/19 01:15:20;;;;;;;13.75;3.38;;;12.90;99.90;;;;;;5044428;28;20045;-65
2022/09/19 01:17:49;;;;;;;12.52;4.00;;;12.90;99.90;;;;;;5046707;28;20036;-65
2022/09/19 01:20:38;;;;;;;14.65;3.67;;;12.90;99.90;;;;;;5040370;28;20514;-65
2022/09/19 01:23:32;;;;;;;11.48;2.83;;;12.90;99.90;;;;;;5031994;28;20044;-66
2022/09/19 01:26:36;;;;;;;13.52;3.17;;;12.90;99.90;;;;;;5038347;28;20040;-65
2022/09/19 01:29:35;;;;;;;11.68;2.67;;;12.90;99.90;;;;;;5046367;28;20072;-65
2022/09/19 01:32:08;;;;;;;11.32;3.28;;;12.90;99.90;;;;;;5026865;28;20064;-65
2022/09/19 01:34:39;;;;;;;11.23;4.28;;;13.00;99.90;;;;;;5005847;28;20487;-65
2022/09/19 01:37:28;;;;;;;11.38;3.00;;;13.00;99.90;;;;;;5021152;28;20504;-66
2022/09/19 01:39:57;;;;;;;9.73;3.95;;;13.00;99.90;;;;;;5016222;28;20473;-65
2022/09/19 01:42:24;;;;;;;13.90;3.72;;;13.00;99.90;;;;;;5024945;28;20061;-65
2022/09/19 01:44:52;;;;;;;10.75;3.33;;;13.00;99.90;;;;;;5024504;28;20395;-66
2022/09/19 01:47:23;;;;;;;11.25;3.33;;;13.00;99.90;;;;;;5021626;28;20125;-65
2022/09/19 01:49:55;;;;;;;14.07;4.10;;;13.00;99.90;;;;;;5024811;28;20045;-65
2022/09/19 01:53:01;;;;;;;8.43;3.83;;;13.00;99.90;;;;;;5025799;28;20089;-65
2022/09/19 01:55:40;;;;;;;10.95;4.22;;;13.00;99.90;;;;;;5023111;28;20173;-65
2022/09/19 01:58:47;;;;;;;17.92;4.20;;;13.00;99.90;;;;;;5026094;28;20136;-66
2022/09/19 02:01:27;;;;;;;16.88;4.22;;;13.00;99.90;;;;;;4965161;28;20039;-66
2022/09/19 02:04:18;;;;;;;11.93;3.25;;;13.00;99.90;;;;;;4985723;28;20054;-65
2022/09/19 02:06:58;;;;;;;10.57;3.08;;;13.00;99.90;;;;;;5029420;28;20045;-66
2022/09/19 02:09:38;;;;;;;14.63;3.45;;;13.00;99.90;;;;;;5041187;28;20402;-65
2022/09/19 02:12:07;;;;;;;9.80;3.03;;;13.00;99.90;;;;;;5052893;28;20029;-66
2022/09/19 02:14:35;;;;;;;11.77;3.55;;;13.00;99.90;;;;;;5049958;28;20087;-66
2022/09/19 02:17:07;;;;;;;11.38;4.25;;;13.00;99.90;;;;;;5041927;28;20443;-66
2022/09/19 02:19:48;;;;;;;14.68;3.50;;;13.00;99.90;;;;;;5046711;28;20041;-66
2022/09/19 02:22:32;;;;;;;8.38;3.67;;;13.00;99.90;;;;;;5041578;28;20035;-66
2022/09/19 02:25:05;;;;;;;9.68;3.40;;;13.00;99.90;;;;;;5041364;28;20037;-65
2022/09/19 02:27:38;;;;;;;14.75;3.25;;;13.10;99.90;;;;;;5050301;28;20069;-65
2022/09/19 02:30:09;;;;;;;7.45;3.22;;;13.10;99.90;;;;;;5049483;28;20123;-66
2022/09/19 02:32:46;;;;;;;16.17;3.83;;;13.10;99.90;;;;;;5051985;28;20222;-66
2022/09/19 02:35:17;;;;;;;8.55;4.03;;;13.10;99.90;;;;;;5040117;28;20128;-66
2022/09/19 02:37:47;;;;;;;10.10;2.78;;;13.10;99.90;;;;;;5050627;28;20041;-66
2022/09/19 02:40:27;;;;;;;14.07;3.88;;;13.10;99.90;;;;;;5043125;28;20059;-65
2022/09/19 02:43:04;;;;;;;8.70;3.58;;;13.10;99.90;;;;;;5048657;28;20037;-65
2022/09/19 02:45:43;;;;;;;16.95;3.00;;;13.10;99.90;;;;;;5052342;28;20360;-65
2022/09/19 02:48:19;;;;;;;7.38;4.13;;;13.10;99.90;;;;;;5046468;28;20193;-65
2022/09/19 02:50:59;;;;;;;11.18;3.88;;;13.10;99.90;;;;;;5051930;28;20037;-66
2022/09/19 02:53:29;;;;;;;8.75;3.00;;;13.00;99.90;;;;;;5051741;28;20037;-65
2022/09/19 02:56:01;;;;;;;6.90;2.42;;;13.10;99.90;;;;;;5032666;28;20041;-65
2022/09/19 02:58:38;;;;;;;9.55;3.25;;;13.10;99.90;;;;;;5052192;28;20041;-65
2022/09/19 03:01:23;;;;;;;9.73;3.40;;;13.10;99.90;;;;;;5051631;28;20033;-65
2022/09/19 03:04:12;;;;;;;9.85;3.10;;;13.10;99.90;;;;;;5051936;28;20029;-65
2022/09/19 03:06:53;;;;;;;7.32;2.67;;;13.10;99.90;;;;;;5052318;28;20044;-65
2022/09/19 03:09:23;;;;;;;9.43;3.00;;;13.20;99.90;;;;;;5046910;28;20033;-66
2022/09/19 03:11:57;;;;;;;11.15;3.20;;;13.10;99.90;;;;;;5031829;28;20392;-65
2022/09/19 03:14:23;;;;;;;7.85;3.15;;;13.20;99.90;;;;;;5045954;28;20032;-66
2022/09/19 03:16:56;;;;;;;11.82;3.38;;;13.20;99.90;;;;;;5045567;28;20029;-65
2022/09/19 03:19:23;;;;;;;11.60;3.63;;;13.20;99.90;;;;;;5041882;28;20033;-66
2022/09/19 03:21:52;;;;;;;7.95;2.85;;;13.20;99.90;;;;;;5043161;28;20037;-65
2022/09/19 03:24:18;;;;;;;7.25;3.20;;;13.10;99.90;;;;;;5050150;28;20604;-65
2022/09/19 03:26:44;;;;;;;7.88;2.40;;;13.10;99.90;;;;;;5047385;28;20139;-66
2022/09/19 03:29:11;;;;;;;5.68;2.42;;;13.10;99.90;;;;;;5030414;28;20121;-65
2022/09/19 03:31:37;;;;;;;5.78;2.97;;;13.10;99.90;;;;;;5036924;28;20045;-65
2022/09/19 03:34:03;;;;;;;10.02;2.58;;;13.10;99.90;;;;;;5066559;28;20037;-65
2022/09/19 03:36:33;;;;;;;7.53;2.67;;;13.10;99.90;;;;;;5038786;28;20041;-65
2022/09/19 03:39:01;;;;;;;5.85;2.83;;;13.00;99.90;;;;;;5044620;28;20142;-65
2022/09/19 03:41:30;;;;;;;8.05;2.33;;;13.00;99.90;;;;;;5013780;28;20049;-65
2022/09/19 03:43:59;;;;;;;15.48;2.72;;;13.00;99.90;;;;;;5036538;28;20091;-66
2022/09/19 03:46:26;;;;;;;11.63;3.10;;;13.10;99.90;;;;;;5044846;28;20075;-65
2022/09/19 03:48:52;;;;;;;10.18;3.25;;;13.10;99.90;;;;;;5037547;28;20037;-66
2022/09/19 03:51:18;;;;;;;7.28;2.83;;;13.10;99.90;;;;;;5032837;28;20052;-65
2022/09/19 03:53:45;;;;;;;10.23;3.15;;;13.10;99.90;;;;;;5050656;28;20486;-65
2022/09/19 03:56:13;;;;;;;9.73;2.58;;;13.00;99.90;;;;;;5048723;28;20486;-66
2022/09/19 03:58:40;;;;;;;9.98;3.10;;;13.10;99.90;;;;;;5051159;28;20037;-65
2022/09/19 04:01:06;;;;;;;7.03;2.40;;;13.10;99.90;;;;;;5050388;28;20045;-65
2022/09/19 04:03:33;;;;;;;9.38;2.67;;;13.10;99.90;;;;;;5042832;28;20041;-65
2022/09/19 04:06:00;;;;;;;8.55;3.00;;;13.00;99.90;;;;;;5036759;28;20372;-65
2022/09/19 04:08:27;;;;;;;8.98;3.10;;;13.10;99.90;;;;;;5050958;28;20354;-65
2022/09/19 04:10:53;;;;;;;11.15;3.17;;;13.00;99.90;;;;;;5050209;28;20045;-65
2022/09/19 04:13:21;;;;;;;12.02;3.42;;;13.00;99.90;;;;;;5044973;28;20464;-65
2022/09/19 04:15:49;;;;;;;6.13;2.92;;;13.00;99.90;;;;;;5045334;28;20045;-65
2022/09/19 04:18:17;;;;;;;8.32;2.35;;;13.00;99.90;;;;;;5048223;28;20037;-65
2022/09/19 04:20:45;;;;;;;9.77;2.78;;;13.00;99.90;;;;;;5049744;28;20041;-65
2022/09/19 04:23:30;;;;;;;16.08;4.07;;;13.00;99.90;;;;;;5042192;28;20045;-66
2022/09/19 04:25:57;;;;;;;13.00;3.75;;;13.00;99.90;;;;;;5049787;28;20037;-65
2022/09/19 04:28:23;;;;;;;9.50;2.35;;;13.00;99.90;;;;;;5048077;28;20098;-66
2022/09/19 04:30:50;;;;;;;7.55;2.55;;;13.00;99.90;;;;;;5049391;28;20040;-65
2022/09/19 04:33:18;;;;;;;8.98;2.55;;;13.00;99.90;;;;;;5045767;28;20121;-65
2022/09/19 04:35:45;;;;;;;10.93;2.70;;;13.00;99.90;;;;;;5049085;28;20041;-65
2022/09/19 04:38:20;;;;;;;16.58;2.97;;;13.00;99.90;;;;;;5049672;28;20525;-65
2022/09/19 04:40:48;;;;;;;7.97;2.35;;;13.00;99.90;;;;;;5050109;28;20054;-66
2022/09/19 04:43:18;;;;;;;6.55;2.28;;;13.00;99.90;;;;;;5047417;28;20404;-66
2022/09/19 04:45:48;;;;;;;11.43;3.35;;;13.00;99.90;;;;;;5052882;28;20111;-66
2022/09/19 04:48:14;;;;;;;5.78;1.85;;;13.00;99.90;;;;;;5047456;28;20037;-66
2022/09/19 04:50:40;;;;;;;7.20;1.98;;;12.90;99.90;;;;;;5052676;28;20033;-65
2022/09/19 04:53:06;;;;;;;7.00;1.85;;;13.00;99.90;;;;;;5052012;28;20052;-65
2022/09/19 04:55:32;;;;;;;6.22;2.33;;;13.00;99.90;;;;;;5045783;28;20041;-66
2022/09/19 04:58:00;;;;;;;8.93;2.22;;;13.00;99.90;;;;;;5042649;28;20106;-65
2022/09/19 05:00:38;;;;;;;8.10;1.83;;;12.90;99.90;;;;;;5049999;28;20045;-66
2022/09/19 05:03:27;;;;;;;8.90;2.88;;;12.90;99.90;;;;;;5047434;28;20040;-66
2022/09/19 05:05:53;;;;;;;7.47;2.38;;;12.90;99.90;;;;;;5053563;28;20029;-65
2022/09/19 05:08:25;;;;;;;7.47;2.20;;;12.90;99.90;;;;;;5048468;28;20037;-66
2022/09/19 05:10:54;;;;;;;8.27;2.92;;;12.90;99.90;;;;;;5054325;28;20040;-65
2022/09/19 05:13:22;;;;;;;6.78;3.13;;;12.90;99.90;;;;;;5052192;28;20041;-65
2022/09/19 05:15:51;;;;;;;7.40;2.53;;;12.90;99.90;;;;;;5047540;28;20045;-66
2022/09/19 05:18:19;;;;;;;10.13;2.65;;;12.90;99.90;;;;;;5037349;28;20113;-66
2022/09/19 05:20:44;;;;;;;8.30;2.92;;;12.90;99.90;;;;;;5044291;28;20107;-65
2022/09/19 05:23:10;;;;;;;6.80;2.33;;;12.90;99.90;;;;;;5050700;28;20049;-65
2022/09/19 05:25:40;;;;;;;9.80;2.42;;;12.90;99.90;;;;;;5067343;28;20037;-65
2022/09/19 05:28:08;;;;;;;12.00;2.03;;;12.90;99.90;;;;;;5051164;28;20056;-66
2022/09/19 05:30:39;;;;;;;10.60;2.70;;;12.90;99.90;;;;;;5047039;28;20048;-65
2022/09/19 05:33:06;;;;;;;6.82;2.63;;;12.90;99.90;;;;;;5066705;28;20563;-65
2022/09/19 05:35:32;;;;;;;6.47;2.13;;;12.90;99.90;;;;;;5053018;28;20070;-65
2022/09/19 05:37:59;;;;;;;7.45;2.63;;;12.90;99.90;;;;;;5053389;28;20549;-65
2022/09/19 05:40:25;;;;;;;8.27;3.38;;;12.90;99.90;;;;;;5050527;28;20053;-65
2022/09/19 05:42:59;;;;;;;7.28;2.10;;;12.90;99.90;;;;;;5045331;28;20099;-66
2022/09/19 05:45:26;;;;;;;10.15;2.83;;;12.90;99.90;;;;;;5052964;28;20143;-65
2022/09/19 05:47:58;;;;;;;6.68;2.03;;;12.90;99.90;;;;;;5052722;28;20036;-65
2022/09/19 05:50:23;;;;;;;7.55;2.28;;;12.90;99.90;;;;;;5048691;28;20041;-65
2022/09/19 05:55:37;;;;;;;9.95;2.53;;;12.90;99.90;;;;;;5045173;28;20114;-65
2022/09/19 05:58:05;;;;;;;9.20;2.65;;;12.90;99.90;;;;;;5043408;28;20479;-65
2022/09/19 06:00:30;;;;;;;9.05;2.55;;;12.90;99.90;;;;;;5051418;28;20075;-65
2022/09/19 06:03:00;;;;;;;9.68;2.70;;;12.90;99.90;;;;;;5050828;28;20045;-65
2022/09/19 06:05:26;;;;;;;6.65;2.05;;;12.90;99.90;;;;;;5052045;28;20044;-65
2022/09/19 06:07:56;;;;;;;6.30;2.13;;;12.90;99.90;;;;;;5050187;28;20067;-65
2022/09/19 06:10:23;;;;;;;23.85;3.92;;;12.90;99.90;;;;;;5038573;28;20033;-65
2022/09/19 06:12:50;;;;;;;10.63;3.03;;;12.90;99.90;;;;;;5050842;28;20037;-65
2022/09/19 06:15:16;;;;;;;6.93;2.85;;;13.00;99.90;;;;;;5050867;28;20041;-65
2022/09/19 06:17:42;;;;;;;15.60;3.05;;;13.00;99.90;;;;;;5047875;28;20039;-65
2022/09/19 06:20:08;;;;;;;6.38;2.28;;;13.00;99.90;;;;;;5048577;28;20123;-65
2022/09/19 06:22:34;;;;;;;10.55;3.05;;;13.00;99.90;;;;;;5045905;28;20474;-65
2022/09/19 06:25:01;;;;;;;12.27;3.15;;;13.00;99.90;;;;;;5042435;28;20051;-65
2022/09/19 06:27:30;;;;;;;8.32;2.70;;;13.00;99.90;;;;;;5052108;28;20044;-65
2022/09/19 06:29:56;;;;;;;8.25;2.63;;;13.00;99.90;;;;;;5050448;28;20037;-66
2022/09/19 06:32:22;;;;;;;13.27;3.33;;;13.00;99.90;;;;;;5048975;28;20095;-65
2022/09/19 06:34:48;;;;;;;9.40;3.17;;;13.00;99.90;;;;;;5051514;28;20386;-66
2022/09/19 06:37:13;;;;;;;11.57;3.15;;;13.00;99.90;;;;;;5032939;28;20049;-66
2022/09/19 06:39:39;;;;;;;8.05;2.60;;;13.00;99.90;;;;;;5049596;28;20057;-65
2022/09/19 06:42:05;;;;;;;11.50;3.72;;;13.10;99.90;;;;;;5047866;28;20041;-66
2022/09/19 06:44:31;;;;;;;11.05;3.42;;;13.20;99.90;;;;;;5047290;28;20036;-66
2022/09/19 06:46:59;;;;;;;7.75;3.05;;;13.20;99.90;;;;;;5047498;28;20100;-66
2022/09/19 06:49:26;;;;;;;9.27;2.75;;;13.20;99.90;;;;;;5042113;28;20040;-65
2022/09/19 06:51:51;;;;;;;11.68;4.35;;;13.20;99.90;;;;;;5043615;28;20056;-66
2022/09/19 06:54:17;;;;;;;7.45;2.10;;;13.20;99.90;;;;;;5047700;28;20033;-66
2022/09/19 06:56:43;;;;;;;8.80;2.40;;;13.20;99.90;;;;;;5050807;28;20044;-66
2022/09/19 06:59:09;;;;;;;6.72;1.95;;;13.20;99.90;;;;;;5051183;28;20049;-65
2022/09/19 07:01:34;;;;;;;8.20;2.42;;;13.30;99.90;;;;;;5045913;28;20049;-65
2022/09/19 07:04:00;;;;;;;8.93;2.45;;;13.30;99.90;;;;;;5048237;28;20522;-65
2022/09/19 07:06:26;;;;;;;12.48;3.10;;;13.30;99.90;;;;;;5047988;28;20044;-65
2022/09/19 07:08:53;;;;;;;9.43;2.80;;;13.40;99.90;;;;;;5051359;28;20040;-66
2022/09/19 07:11:19;;;;;;;12.23;2.72;;;13.40;99.90;;;;;;5047939;28;20090;-65
2022/09/19 07:13:48;;;;;;;7.95;3.22;;;13.50;99.90;;;;;;5039224;28;20171;-65
2022/09/19 07:16:14;;;;;;;12.75;3.20;;;13.50;99.90;;;;;;5045236;28;20049;-65
2022/09/19 07:18:40;;;;;;;7.50;2.92;;;13.50;99.90;;;;;;5047279;28;20048;-66
2022/09/19 07:21:06;;;;;;;9.30;2.90;;;13.50;99.90;;;;;;5023907;28;20059;-66
2022/09/19 07:23:33;;;;;;;8.18;2.70;;;13.60;99.90;;;;;;5030933;28;20052;-66
2022/09/19 07:26:00;;;;;;;6.25;2.53;;;13.60;99.90;;;;;;5050537;28;20033;-65
2022/09/19 07:28:26;;;;;;;9.18;3.13;;;13.70;99.90;;;;;;5050416;28;20136;-66
2022/09/19 07:30:52;;;;;;;9.82;2.45;;;13.70;99.90;;;;;;5045005;28;20171;-66
2022/09/19 07:33:20;;;;;;;9.43;3.30;;;13.80;99.90;;;;;;5046004;28;20045;-65
2022/09/19 07:35:46;;;;;;;11.23;2.63;;;13.80;99.90;;;;;;5033667;28;20391;-65
2022/09/19 07:38:14;;;;;;;14.25;4.15;;;13.80;99.90;;;;;;5044407;28;20037;-65
2022/09/19 07:40:40;;;;;;;13.35;3.72;;;13.80;99.90;;;;;;5047310;28;20044;-65
2022/09/19 07:43:06;;;;;;;10.57;3.28;;;13.90;99.90;;;;;;5049698;28;20047;-65
2022/09/19 07:45:34;;;;;;;8.85;3.38;;;13.90;99.90;;;;;;5044738;28;20474;-66
2022/09/19 07:48:01;;;;;;;9.82;3.35;;;13.90;99.90;;;;;;5047720;28;20041;-65
2022/09/19 07:50:27;;;;;;;9.30;3.58;;;14.00;99.90;;;;;;5041331;28;20178;-65
2022/09/19 07:53:04;;;;;;;9.73;3.80;;;14.00;99.90;;;;;;5045925;28;20489;-65
2022/09/19 07:55:31;;;;;;;10.57;2.85;;;14.10;99.90;;;;;;5062638;28;20045;-66
2022/09/19 07:57:58;;;;;;;14.05;3.08;;;14.10;99.90;;;;;;5047921;28;20418;-65
2022/09/19 08:00:26;;;;;;;20.85;4.93;;;14.20;99.90;;;;;;5045215;28;20119;-65
2022/09/19 08:02:56;;;;;;;10.63;3.15;;;14.30;99.90;;;;;;5039257;28;20368;-65
2022/09/19 08:05:22;;;;;;;9.27;2.58;;;14.30;99.90;;;;;;5047096;28;20037;-65
2022/09/19 08:07:48;;;;;;;14.30;3.42;;;14.40;99.90;;;;;;5044213;28;20120;-65
2022/09/19 08:10:15;;;;;;;15.13;2.53;;;14.40;99.90;;;;;;5045773;28;20041;-66
2022/09/19 08:12:44;;;;;;;5.88;2.55;;;14.50;99.90;;;;;;5063576;28;20049;-65
2022/09/19 08:15:15;;;;;;;8.23;2.75;;;14.50;99.90;;;;;;5053630;28;20123;-65
2022/09/19 08:17:42;;;;;;;9.15;3.13;;;14.60;99.90;;;;;;5051608;28;20485;-66
2022/09/19 08:20:08;;;;;;;7.82;2.63;;;;;;;;;;5051689;28;20060;-65
2022/09/19 08:22:34;;;;;;;11.35;3.95;;;;;;;;;;5054309;28;20479;-66
2022/09/19 08:25:01;;;;;;;15.27;3.75;;;14.60;99.90;;;;;;5053373;28;20116;-66
2022/09/19 08:27:26;;;;;;;10.60;3.15;;;14.80;99.90;;;;;;5052704;28;20106;-65
2022/09/19 08:29:52;;;;;;;13.75;4.15;;;14.80;99.90;;;;;;5051789;28;20448;-65
2022/09/19 08:32:18;;;;;;;13.50;3.40;;;14.90;99.90;;;;;;5050197;28;20045;-65
2022/09/19 08:34:44;;;;;;;10.05;4.00;;;;;;;;;;5052845;28;20406;-65
2022/09/19 08:37:11;;;;;;;13.55;3.75;;;;;;;;;;5050261;28;20178;-65
2022/09/19 08:40:15;;;;;;;10.13;2.70;;;15.00;99.90;;;;;;5047087;28;20132;-65
2022/09/19 08:42:27;;;;;;;7.47;2.70;;;;;;;;;;5047410;28;20126;-66
2022/09/19 08:45:05;;;;;;;8.45;2.72;;;15.10;99.90;;;;;;5051168;28;20045;-65
2022/09/19 08:47:34;;;;;;;16.88;3.83;;;15.20;99.90;;;;;;5041700;28;20064;-66
2022/09/19 08:50:20;;;;;;;9.65;3.05;;;15.20;99.90;;;;;;5051631;28;20041;-65
2022/09/19 08:52:50;;;;;;;9.38;2.85;;;15.30;99.90;;;;;;5055751;28;20037;-66
2022/09/19 08:55:29;;;;;;;13.75;2.90;;;15.30;99.90;;;;;;5052346;28;20135;-66
2022/09/19 08:58:01;;;;;;;5.93;2.38;;;;;;;;;;5053656;28;20036;-65
2022/09/19 09:00:32;;;;;;;6.80;3.25;;;;;;;;;;5048533;28;20271;-65
2022/09/19 09:03:00;;;;;;;10.10;2.83;;;;;;;;;;5053515;28;20037;-65
2022/09/19 09:05:39;;;;;;;8.75;3.72;;;;;;;;;;5049385;28;20041;-66
2022/09/19 09:08:24;;;;;;;11.50;3.33;;;;;;;;;;5050009;28;20044;-65
2022/09/19 09:10:54;;;;;;;5.88;2.05;;;;;;;;;;5050867;28;20060;-65
2022/09/19 09:13:24;;;;;;;8.32;2.20;;;;;;;;;;5049625;28;20503;-65
2022/09/19 09:16:09;;;;;;;4.47;2.08;;;;;;;;;;5053404;28;20044;-65
2022/09/19 09:19:02;;;;;;;8.98;2.80;;;;;;;;;;5043227;28;20049;-65
2022/09/19 09:21:35;;;;;;;13.65;2.95;;;;;;;;;;5038457;28;20119;-65
2022/09/19 09:24:08;;;;;;;6.70;2.63;;;;;;;;;;5051266;28;20040;-66
2022/09/19 09:26:38;;;;;;;7.72;3.17;;;;;;;;;;5049485;28;20044;-65
2022/09/19 09:29:23;;;;;;;13.90;3.67;;;;;;;;;;5049853;28;20037;-66
2022/09/19 09:32:00;;;;;;;9.57;3.58;;;;;;;;;;5048616;28;20048;-65
2022/09/19 09:34:35;;;;;;;5.53;2.00;;;;;;;;;;5049488;28;20468;-66
2022/09/19 09:37:25;;;;;;;7.30;2.17;;;;;;;;;;5050550;28;20044;-66
2022/09/19 09:40:08;;;;;;;8.85;2.30;;;;;;;;;;5042782;28;20049;-66
2022/09/19 09:42:53;;;;;;;9.38;2.63;;;;;;;;;;5047615;28;20044;-66
2022/09/19 09:45:50;;;;;;;8.10;2.38;;;15.30;99.90;;;;;;5044413;28;20099;-66
2022/09/19 09:48:32;;;;;;;7.60;2.20;;;15.60;99.90;;;;;;5036809;28;20048;-66
2022/09/19 09:51:20;;;;;;;5.82;2.72;;;;;;;;;;5046149;28;20043;-66
2022/09/19 09:53:46;;;;;;;5.88;2.08;;;;;;;;;;5047053;28;20036;-66
2022/09/19 09:56:22;;;;;;;6.63;2.20;;;;;;;;;;5052153;28;20037;-66
2022/09/19 09:58:48;;;;;;;6.07;1.63;;;;;;;;;;5051635;28;20036;-66
2022/09/19 10:04:10;;;;;;;9.05;2.60;;;;;;;;;;5025555;28;20038;-65
2022/09/19 10:06:43;;;;;;;11.23;3.55;;;;;;;;;;5051415;28;20041;-65
2022/09/19 10:09:18;;;;;;;11.13;2.97;;;;;;;;;;5045008;28;20044;-66
2022/09/19 10:11:45;;;;;;;11.98;2.65;;;;;;;;;;5045490;28;20045;-65
2022/09/19 10:14:19;;;;;;;9.95;2.90;;;;;;;;;;5049283;28;20045;-65
2022/09/19 10:16:47;;;;;;;10.43;3.03;;;;;;;;;;5045001;28;20036;-66
2022/09/19 10:19:25;;;;;;;10.23;3.75;;;;;;;;;;5042208;28;20052;-66
2022/09/19 10:21:52;;;;;;;5.47;2.20;;;;;;;;;;5050697;28;20482;-65
2022/09/19 10:24:40;;;;;;;9.93;3.15;;;;;;;;;;5043272;28;20044;-65
2022/09/19 10:27:11;;;;;;;15.18;3.22;;;;;;;;;;5045971;28;20297;-66
2022/09/19 10:29:49;;;;;;;16.15;3.25;;;;;;;;;;5048515;28;20042;-65
2022/09/19 10:32:19;;;;;;;7.38;3.03;;;;;;;;;;5045444;28;20090;-67
2022/09/19 10:34:49;;;;;;;11.35;3.20;;;;;;;;;;5049487;28;20072;-66
2022/09/19 10:37:15;;;;;;;10.25;2.72;;;;;;;;;;5050155;28;20072;-66
2022/09/19 10:39:47;;;;;;;10.65;2.95;;;;;;;;;;5047925;28;20275;-66
2022/09/19 10:42:34;;;;;;;11.07;2.70;;;;;;;;;;5048309;28;20107;-67
2022/09/19 10:45:02;;;;;;;6.43;2.83;;;;;;;;;;5047051;28;20029;-66
2022/09/19 10:47:29;;;;;;;10.98;3.13;;;;;;;;;;5041544;28;20079;-66
2022/09/19 10:50:00;;;;;;;8.07;2.88;;;;;;;;;;5046114;28;20045;-67
2022/09/19 10:52:30;;;;;;;8.85;2.45;;;;;;;;;;5047951;28;20175;-67
2022/09/19 10:54:58;;;;;;;9.32;3.15;;;;;;;;;;5042948;28;20043;-67
2022/09/19 10:57:45;;;;;;;6.45;2.90;;;;;;;;;;5047880;28;20043;-66
2022/09/19 11:00:35;;;;;;;9.50;2.80;;;;;;;;;;5047489;28;20072;-66
2022/09/19 11:03:06;;;;;;;7.78;2.35;;;;;;;;;;5050020;28;20501;-67
2022/09/19 11:05:34;;;;;;;10.27;2.10;;;;;;;;;;5046334;28;20524;-66
2022/09/19 11:08:00;;;;;;;9.73;2.55;;;;;;;;;;5045533;28;20043;-66
2022/09/19 11:10:40;;;;;;;5.57;2.58;;;;;;;;;;5047746;28;20562;-66
2022/09/19 11:13:07;;;;;;;10.50;2.72;;;;;;;;;;5043922;28;20407;-67
2022/09/19 11:15:38;;;;;;;9.70;3.30;;;;;;;;;;5042532;28;20037;-66
2022/09/19 11:18:09;;;;;;;7.85;2.38;;;;;;;;;;5043263;28;20045;-66
2022/09/19 11:20:40;;;;;;;10.65;2.90;;;;;;;;;;5039645;28;20133;-66
2022/09/19 11:23:13;;;;;;;8.57;2.50;;;;;;;;;;5035400;28;20573;-66
2022/09/19 11:25:42;;;;;;;9.43;3.20;;;;;;;;;;5041293;28;20515;-67
2022/09/19 11:28:29;;;;;;;9.70;2.47;;;;;;;;;;5031049;28;20434;-66
2022/09/19 11:31:05;;;;;;;13.93;4.07;;;;;;;;;;5035410;28;20084;-66
2022/09/19 11:34:04;;;;;;;11.20;2.90;;;;;;;;;;5038398;28;20075;-66
2022/09/19 11:36:54;;;;;;;12.25;3.72;;;;;;;;;;5001448;28;20057;-66
2022/09/19 11:39:39;;;;;;;9.23;2.58;;;;;;;;;;5031059;28;20060;-66
2022/09/19 11:42:08;;;;;;;11.82;3.10;;;;;;;;;;5038085;28;20044;-66
2022/09/19 11:44:52;;;;;;;8.50;2.58;;;;;;;;;;5033238;28;20179;-66
2022/09/19 11:47:37;;;;;;;8.68;3.35;;;;;;;;;;5043732;28;20051;-66
2022/09/19 11:50:22;;;;;;;11.50;3.03;;;;;;;;;;5043350;28;20483;-66
2022/09/19 11:53:01;;;;;;;9.73;3.17;;;;;;;;;;5042946;28;20036;-67
2022/09/19 11:55:43;;;;;;;10.90;3.05;;;;;;;;;;5037582;28;20087;-67
2022/09/19 11:58:24;;;;;;;11.05;3.45;;;;;;;;;;5040268;28;20041;-67
2022/09/19 12:01:20;;;;;;;11.07;3.67;;;;;;;;;;5038772;28;20075;-67
2022/09/19 12:03:50;;;;;;;15.02;3.08;;;;;;;;;;5041718;28;20053;-67
2022/09/19 12:06:25;;;;;;;6.97;2.00;;;;;;;;;;5040470;28;20121;-67
2022/09/19 12:08:57;;;;;;;11.48;2.35;;;;;;;;;;5043830;28;20048;-67
2022/09/19 12:11:45;;;;;;;6.65;2.55;;;;;;;;;;5038091;28;20045;-67
2022/09/19 12:14:26;;;;;;;11.27;2.50;;;;;;;;;;5040819;28;20072;-67
2022/09/19 12:17:03;;;;;;;9.38;2.75;;;;;;;;;;5046756;28;20124;-67
2022/09/19 12:19:36;;;;;;;8.38;2.97;;;;;;;;;;5043752;28;20045;-67
2022/09/19 12:22:12;;;;;;;12.05;3.97;;;;;;;;;;5043026;28;20120;-67
2022/09/19 12:24:54;;;;;;;9.13;2.78;;;;;;;;;;5036978;28;20068;-67
2022/09/19 12:27:32;;;;;;;13.80;2.80;;;;;;;;;;5041788;28;20037;-67
2022/09/19 12:29:58;;;;;;;8.93;2.67;;;;;;;;;;5045470;28;20073;-67
2022/09/19 12:32:38;;;;;;;6.47;2.55;;;;;;;;;;5033079;28;20046;-67
2022/09/19 12:35:11;;;;;;;6.63;2.40;;;;;;;;;;5041595;28;20044;-67
2022/09/19 12:37:37;;;;;;;8.25;2.40;;;;;;;;;;5044103;28;20525;-67
2022/09/19 12:40:12;;;;;;;7.88;2.63;;;;;;;;;;5037934;28;20053;-67
2022/09/19 12:42:45;;;;;;;7.65;3.08;;;;;;;;;;5034589;28;20044;-67
2022/09/19 12:45:14;;;;;;;7.13;2.47;;;;;;;;;;5042717;28;20486;-68
2022/09/19 12:47:40;;;;;;;6.38;2.47;;;;;;;;;;5039842;28;20102;-67
2022/09/19 12:50:29;;;;;;;7.68;2.33;;;;;;;;;;5037691;28;20525;-67
2022/09/19 12:53:05;;;;;;;8.27;2.45;;;;;;;;;;5042617;28;20056;-67
2022/09/19 12:55:38;;;;;;;14.15;3.33;;;;;;;;;;5044900;28;20037;-67
2022/09/19 12:58:16;;;;;;;6.00;2.08;;;;;;;;;;5044305;28;20037;-67
2022/09/19 13:00:45;;;;;;;7.10;2.28;;;;;;;;;;5042470;28;20041;-67
2022/09/19 13:03:11;;;;;;;6.30;2.10;;;;;;;;;;5039253;28;20033;-67
2022/09/19 13:05:42;;;;;;;9.73;2.55;;;;;;;;;;5049371;28;20041;-67
2022/09/19 13:08:26;;;;;;;13.48;2.90;;;;;;;;;;5048144;28;20041;-67
2022/09/19 13:11:01;;;;;;;10.02;3.30;;;;;;;;;;5046709;28;20571;-67
2022/09/19 13:13:31;;;;;;;12.98;3.53;;;;;;;;;;5049874;28;20041;-67
2022/09/19 13:15:59;;;;;;;15.95;3.67;;;;;;;;;;5041656;28;20075;-66
2022/09/19 13:24:01;;;;;;;8.13;2.85;;;;;;;;;;5037697;28;20137;-67
2022/09/19 13:26:36;;;;;;;12.52;2.65;;;;;;;;;;5033287;28;20095;-67
2022/09/19 13:29:22;;;;;;;6.53;2.25;;;;;;;;;;5044150;28;20036;-67
2022/09/19 13:31:53;;;;;;;7.75;2.28;;;;;;;;;;5033745;28;20487;-67
2022/09/19 13:34:40;;;;;;;6.40;2.70;;;;;;;;;;5041072;28;20047;-61
2022/09/19 13:37:25;;;;;;;5.25;2.00;;;;;;;;;;5048765;28;20073;-62
2022/09/19 13:39:51;;;;;;;9.32;2.40;;;;;;;;;;5042953;28;20490;-62
2022/09/19 13:42:24;;;;;;;9.18;2.10;;;;;;;;;;5038840;28;20037;-62
2022/09/19 13:45:01;;;;;;;6.80;2.63;;;;;;;;;;5034639;28;20076;-62
2022/09/19 13:47:30;;;;;;;10.65;3.55;;;;;;;;;;5041988;28;20339;-62
2022/09/19 13:49:56;;;;;;;5.68;1.73;;;;;;;;;;5043869;28;20498;-62
2022/09/19 13:52:26;;;;;;;6.72;2.47;;;;;;;;;;5036160;28;20048;-63
2022/09/19 13:54:57;;;;;;;10.07;2.40;;;;;;;;;;5048594;28;20033;-63
2022/09/19 13:57:28;;;;;;;8.35;2.10;;;;;;;;;;5047111;28;20083;-63
2022/09/19 13:59:58;;;;;;;7.88;2.28;;;;;;;;;;5041065;28;20549;-64
2022/09/19 14:02:36;;;;;;;8.82;2.47;;;;;;;;;;5046612;28;20427;-63